createdAt,value
2023-03-31T00:00:57.362Z,2.37
2023-03-31T00:03:29.651Z,2.33
2023-03-31T00:06:02.467Z,2.32
2023-03-31T00:08:40.529Z,2.31
2023-03-31T00:11:12.800Z,2.29
2023-03-31T00:13:44.921Z,2.28
2023-03-31T00:16:17.040Z,2.29
2023-03-31T00:18:51.008Z,2.24
2023-03-31T00:21:28.069Z,2.19
2023-03-31T00:24:03.315Z,2.36
2023-03-31T00:26:36.769Z,2.19
2023-03-31T00:29:10.482Z,2.13
2023-03-31T00:31:42.861Z,2.11
2023-03-31T00:34:15.092Z,2.12
2023-03-31T00:36:49.928Z,2.08
2023-03-31T00:39:22.083Z,2.03
2023-03-31T00:41:54.336Z,2.03
2023-03-31T00:44:27.276Z,1.96
2023-03-31T00:47:10.621Z,1.94
2023-03-31T00:49:45.475Z,1.92
2023-03-31T00:52:24.264Z,1.94
2023-03-31T00:54:59.145Z,1.94
2023-03-31T00:57:37.118Z,1.94
2023-03-31T01:00:18.787Z,1.93
2023-03-31T01:02:55.664Z,1.98
2023-03-31T01:05:36.721Z,1.91
2023-03-31T01:08:09.461Z,1.87
2023-03-31T01:10:50.124Z,1.85
2023-03-31T01:13:24.821Z,1.80
2023-03-31T01:15:57.071Z,1.88
2023-03-31T01:18:33.118Z,1.79
2023-03-31T01:21:29.268Z,1.73
2023-03-31T01:24:12.966Z,1.68
2023-03-31T01:26:59.532Z,1.64
2023-03-31T01:29:46.916Z,1.64
2023-03-31T01:32:30.636Z,1.62
2023-03-31T01:35:38.608Z,1.55
2023-03-31T01:39:03.040Z,1.54
2023-03-31T01:41:59.073Z,1.44
2023-03-31T01:45:03.089Z,1.46
2023-03-31T01:48:17.818Z,1.39
2023-03-31T01:51:09.503Z,1.28
2023-03-31T01:53:51.445Z,1.28
2023-03-31T01:56:44.484Z,1.21
2023-03-31T01:59:20.224Z,1.26
2023-03-31T02:01:56.506Z,1.24
2023-03-31T02:04:34.144Z,1.31
2023-03-31T02:07:09.475Z,1.17
2023-03-31T02:09:44.463Z,1.12
2023-03-31T02:12:18.368Z,1.05
2023-03-31T02:14:53.448Z,1.03
2023-03-31T02:17:30.735Z,0.97
2023-03-31T02:20:07.425Z,0.88
2023-03-31T02:22:41.661Z,0.78
2023-03-31T02:25:14.376Z,0.71
2023-03-31T02:27:47.065Z,0.79
2023-03-31T02:30:18.161Z,0.78
2023-03-31T02:32:49.069Z,0.73
2023-03-31T02:35:22.326Z,0.73
2023-03-31T02:37:53.978Z,0.65
2023-03-31T02:40:26.648Z,0.63
2023-03-31T02:42:57.681Z,0.54
2023-03-31T02:45:36.145Z,0.48
2023-03-31T02:48:11.752Z,0.47
2023-03-31T02:50:47.182Z,0.40
2023-03-31T02:53:25.674Z,0.41
2023-03-31T02:55:58.213Z,0.36
2023-03-31T02:58:36.333Z,0.37
2023-03-31T03:01:25.202Z,0.30
2023-03-31T03:04:13.961Z,0.28
2023-03-31T03:06:50.630Z,0.28
2023-03-31T03:09:24.613Z,0.23
2023-03-31T03:12:02.995Z,0.24
2023-03-31T03:14:35.466Z,0.21
2023-03-31T03:17:07.907Z,0.22
2023-03-31T03:19:38.818Z,0.25
2023-03-31T03:22:09.924Z,0.23
2023-03-31T03:24:42.507Z,0.29
2023-03-31T03:27:13.380Z,0.29
2023-03-31T03:29:44.322Z,0.33
2023-03-31T03:32:15.494Z,0.47
2023-03-31T03:34:46.533Z,0.52
2023-03-31T03:37:17.421Z,0.55
2023-03-31T03:39:48.368Z,0.67
2023-03-31T03:42:19.499Z,0.80
2023-03-31T03:44:50.898Z,0.95
2023-03-31T03:47:21.882Z,1.08
2023-03-31T03:49:52.971Z,1.28
2023-03-31T03:52:23.854Z,1.36
2023-03-31T03:54:54.726Z,1.47
2023-03-31T03:57:26.706Z,1.56
2023-03-31T03:59:57.717Z,1.62
2023-03-31T04:02:29.090Z,1.65
2023-03-31T04:05:00.214Z,1.77
2023-03-31T04:07:31.938Z,1.83
2023-03-31T04:10:03.051Z,1.89
2023-03-31T04:12:35.320Z,1.89
2023-03-31T04:15:06.563Z,1.87
2023-03-31T04:17:37.935Z,1.97
2023-03-31T04:20:10.237Z,1.96
2023-03-31T04:22:41.474Z,2.04
2023-03-31T04:25:16.836Z,2.08
2023-03-31T04:27:53.739Z,2.16
2023-03-31T04:30:25.743Z,2.22
2023-03-31T04:32:57.470Z,2.14
2023-03-31T04:35:31.496Z,2.09
2023-03-31T04:38:02.832Z,2.12
2023-03-31T04:40:35.643Z,2.20
2023-03-31T04:43:06.943Z,2.28
2023-03-31T04:45:38.299Z,2.36
2023-03-31T04:48:09.522Z,2.54
2023-03-31T04:50:40.824Z,2.59
2023-03-31T04:53:12.122Z,2.64
2023-03-31T04:55:42.920Z,2.73
2023-03-31T04:58:14.052Z,2.79
2023-03-31T05:00:45.119Z,2.75
2023-03-31T05:03:16.382Z,2.69
2023-03-31T05:05:47.416Z,2.67
2023-03-31T05:08:18.442Z,2.68
2023-03-31T05:10:49.365Z,2.73
2023-03-31T05:13:20.324Z,2.80
2023-03-31T05:15:51.881Z,2.80
2023-03-31T05:18:22.970Z,2.89
2023-03-31T05:20:54.619Z,2.94
2023-03-31T05:23:25.710Z,2.98
2023-03-31T05:25:56.814Z,3.04
2023-03-31T05:28:27.754Z,3.15
2023-03-31T05:31:01.649Z,3.26
2023-03-31T05:33:32.718Z,3.39
2023-03-31T05:36:04.164Z,3.47
2023-03-31T05:38:35.834Z,3.51
2023-03-31T05:41:07.815Z,3.54
2023-03-31T05:43:40.241Z,3.52
2023-03-31T05:46:11.975Z,3.51
2023-03-31T05:48:43.341Z,3.56
2023-03-31T05:51:14.792Z,3.60
2023-03-31T05:53:46.402Z,3.62
2023-03-31T05:56:17.561Z,3.69
2023-03-31T05:58:48.721Z,3.88
2023-03-31T06:01:24.068Z,4.08
2023-03-31T06:03:55.172Z,4.33
2023-03-31T06:06:26.291Z,4.45
2023-03-31T06:08:57.309Z,4.52
2023-03-31T06:11:28.609Z,4.49
2023-03-31T06:13:59.862Z,4.44
2023-03-31T06:16:30.960Z,4.41
2023-03-31T06:19:02.389Z,4.45
2023-03-31T06:21:33.596Z,4.50
2023-03-31T06:24:05.080Z,4.59
2023-03-31T06:26:38.263Z,4.59
2023-03-31T06:29:11.461Z,4.63
2023-03-31T06:31:42.782Z,4.69
2023-03-31T06:34:14.142Z,4.77
2023-03-31T06:36:45.481Z,4.86
2023-03-31T06:39:16.621Z,4.97
2023-03-31T06:41:48.070Z,5.07
2023-03-31T06:44:22.291Z,5.12
2023-03-31T06:46:53.437Z,5.12
2023-03-31T06:49:24.899Z,5.18
2023-03-31T06:51:57.189Z,5.21
2023-03-31T06:54:28.462Z,5.24
2023-03-31T06:56:59.982Z,5.29
2023-03-31T06:59:31.700Z,5.31
2023-03-31T07:02:02.959Z,5.35
2023-03-31T07:04:34.365Z,5.36
2023-03-31T07:07:05.342Z,5.38
2023-03-31T07:09:36.482Z,5.40
2023-03-31T07:12:07.574Z,5.33
2023-03-31T07:14:38.814Z,5.30
2023-03-31T07:17:10.284Z,5.35
2023-03-31T07:19:42.412Z,5.47
2023-03-31T07:22:13.660Z,5.53
2023-03-31T07:24:44.817Z,5.56
2023-03-31T07:27:15.709Z,5.54
2023-03-31T07:29:47.200Z,5.53
2023-03-31T07:32:19.037Z,5.54
2023-03-31T07:34:51.013Z,5.47
2023-03-31T07:37:22.277Z,5.52
2023-03-31T07:39:53.705Z,5.53
2023-03-31T07:42:24.865Z,5.57
2023-03-31T07:44:56.497Z,5.63
2023-03-31T07:47:28.290Z,5.72
2023-03-31T07:50:00.278Z,5.78
2023-03-31T07:52:32.382Z,5.85
2023-03-31T07:55:04.643Z,5.85
2023-03-31T07:57:35.273Z,5.85
2023-03-31T08:00:08.787Z,5.86
2023-03-31T08:02:45.797Z,5.92
2023-03-31T08:05:18.951Z,6.01
2023-03-31T08:07:52.729Z,6.04
2023-03-31T08:10:25.501Z,6.09
2023-03-31T08:12:57.894Z,6.11
2023-03-31T08:15:29.057Z,6.14
2023-03-31T08:18:00.883Z,6.13
2023-03-31T08:20:33.563Z,6.23
2023-03-31T08:23:11.011Z,6.29
2023-03-31T08:25:44.675Z,6.35
2023-03-31T08:28:15.870Z,6.42
2023-03-31T08:30:47.613Z,6.42
2023-03-31T08:33:19.491Z,6.52
2023-03-31T08:35:51.708Z,6.58
2023-03-31T08:38:22.830Z,6.50
2023-03-31T08:40:56.976Z,6.58
2023-03-31T08:43:30.076Z,6.72
2023-03-31T08:46:02.307Z,6.79
2023-03-31T08:48:38.928Z,6.82
2023-03-31T08:51:12.150Z,6.85
2023-03-31T08:53:48.346Z,6.93
2023-03-31T08:56:20.992Z,7.06
2023-03-31T08:58:52.889Z,7.22
2023-03-31T09:01:25.758Z,7.35
2023-03-31T09:04:18.518Z,7.39
2023-03-31T09:07:00.204Z,7.40
2023-03-31T09:09:42.274Z,7.42
2023-03-31T09:12:16.124Z,7.45
2023-03-31T09:14:49.174Z,7.39
2023-03-31T09:17:25.654Z,7.35
2023-03-31T09:20:10.826Z,7.30
2023-03-31T09:22:43.330Z,7.28
2023-03-31T09:25:18.785Z,7.24
2023-03-31T09:27:51.480Z,7.28
2023-03-31T09:30:29.016Z,7.34
2023-03-31T09:33:01.625Z,7.41
2023-03-31T09:35:34.023Z,7.45
2023-03-31T09:38:07.106Z,7.43
2023-03-31T09:40:39.022Z,7.39
2023-03-31T09:43:30.200Z,7.42
2023-03-31T09:49:15.529Z,7.48
2023-03-31T09:51:51.692Z,7.58
2023-03-31T09:54:29.658Z,7.75
2023-03-31T09:57:03.413Z,7.86
2023-03-31T09:59:36.575Z,7.89
2023-03-31T10:02:21.307Z,7.87
2023-03-31T10:04:53.115Z,7.85
2023-03-31T10:07:26.789Z,7.76
2023-03-31T10:09:58.399Z,7.69
2023-03-31T10:12:31.153Z,7.67
2023-03-31T10:15:06.841Z,7.66
2023-03-31T10:17:53.834Z,7.68
2023-03-31T10:20:13.945Z,7.63
2023-03-31T10:22:48.657Z,7.64
2023-03-31T10:25:25.838Z,7.71
2023-03-31T10:27:57.753Z,7.73
2023-03-31T10:30:30.266Z,7.67
2023-03-31T10:33:08.436Z,7.62
2023-03-31T10:36:03.030Z,7.60
2023-03-31T10:38:42.773Z,7.63
2023-03-31T10:41:15.363Z,7.65
2023-03-31T10:43:51.611Z,7.68
2023-03-31T10:46:24.353Z,7.68
2023-03-31T10:48:58.101Z,7.63
2023-03-31T10:51:29.150Z,7.62
2023-03-31T10:54:03.688Z,7.64
2023-03-31T10:56:36.248Z,7.66
2023-03-31T10:59:14.630Z,7.67
2023-03-31T11:01:50.746Z,7.71
2023-03-31T11:04:35.390Z,7.69
2023-03-31T11:07:25.732Z,7.62
2023-03-31T11:10:09.639Z,7.61
2023-03-31T11:12:46.844Z,7.53
2023-03-31T11:15:19.589Z,7.45
2023-03-31T11:18:01.323Z,7.41
2023-03-31T11:20:44.093Z,7.40
2023-03-31T11:23:25.844Z,7.32
2023-03-31T11:26:02.239Z,7.26
2023-03-31T11:28:52.785Z,7.16
2023-03-31T11:31:29.699Z,7.10
2023-03-31T11:34:20.574Z,7.08
2023-03-31T11:37:12.261Z,7.04
2023-03-31T11:39:56.945Z,7.06
2023-03-31T11:42:29.632Z,7.05
2023-03-31T11:45:08.714Z,7.06
2023-03-31T11:47:42.956Z,7.02
2023-03-31T11:50:22.557Z,7.05
2023-03-31T11:53:04.064Z,7.01
2023-03-31T11:55:37.610Z,6.97
2023-03-31T11:58:13.026Z,6.96
2023-03-31T12:00:49.168Z,6.93
2023-03-31T12:03:27.199Z,6.91
2023-03-31T12:06:02.405Z,6.84
2023-03-31T12:08:43.258Z,6.78
2023-03-31T12:11:19.370Z,6.72
2023-03-31T12:13:55.454Z,6.64
2023-03-31T12:16:48.380Z,6.69
2023-03-31T12:19:30.543Z,6.69
2023-03-31T12:22:15.852Z,6.69
2023-03-31T12:24:48.069Z,6.68
2023-03-31T12:27:22.996Z,6.76
2023-03-31T12:29:58.701Z,6.73
2023-03-31T12:32:34.918Z,6.72
2023-03-31T12:35:09.050Z,6.74
2023-03-31T12:37:42.272Z,6.79
2023-03-31T12:40:30.832Z,6.80
2023-03-31T12:43:16.958Z,6.75
2023-03-31T12:45:58.288Z,6.78
2023-03-31T12:48:41.028Z,6.71
2023-03-31T12:51:18.375Z,6.70
2023-03-31T12:53:54.460Z,6.76
2023-03-31T12:56:26.250Z,6.75
2023-03-31T12:59:03.850Z,6.72
2023-03-31T13:01:35.754Z,6.66
2023-03-31T13:04:11.185Z,6.65
2023-03-31T13:06:44.505Z,6.58
2023-03-31T13:09:17.276Z,6.57
2023-03-31T13:11:50.177Z,6.57
2023-03-31T13:14:24.323Z,6.53
2023-03-31T13:16:59.273Z,6.44
2023-03-31T13:19:35.915Z,6.37
2023-03-31T13:22:14.113Z,6.28
2023-03-31T13:24:47.083Z,6.27
2023-03-31T13:27:24.988Z,6.24
2023-03-31T13:29:58.134Z,6.18
2023-03-31T13:32:31.726Z,6.07
2023-03-31T13:35:16.681Z,6.01
2023-03-31T13:38:04.914Z,5.95
2023-03-31T13:40:40.840Z,5.92
2023-03-31T13:43:21.117Z,5.95
2023-03-31T13:46:12.705Z,5.90
2023-03-31T13:48:46.342Z,5.83
2023-03-31T13:51:22.644Z,5.75
2023-03-31T13:54:04.567Z,5.76
2023-03-31T13:56:41.997Z,5.75
2023-03-31T13:59:31.153Z,5.69
2023-03-31T14:02:21.374Z,5.69
2023-03-31T14:05:12.133Z,5.61
2023-03-31T14:07:46.215Z,5.59
2023-03-31T14:10:26.192Z,5.58
2023-03-31T14:13:13.024Z,5.60
2023-03-31T14:15:52.584Z,5.60
2023-03-31T14:18:31.202Z,5.60
2023-03-31T14:21:09.437Z,5.60
2023-03-31T14:24:00.569Z,5.56
2023-03-31T14:26:36.296Z,5.56
2023-03-31T14:29:12.926Z,5.54
2023-03-31T14:31:46.127Z,5.50
2023-03-31T14:34:27.904Z,5.49
2023-03-31T14:37:04.682Z,5.47
2023-03-31T14:39:43.440Z,5.52
2023-03-31T14:42:18.844Z,5.46
2023-03-31T14:44:50.376Z,5.46
2023-03-31T14:47:23.377Z,5.39
2023-03-31T14:50:07.651Z,5.35
2023-03-31T14:52:38.931Z,5.29
2023-03-31T14:55:12.259Z,5.24
2023-03-31T14:57:46.053Z,5.24
2023-03-31T15:00:20.369Z,5.24
2023-03-31T15:02:52.334Z,5.23
2023-03-31T15:05:27.650Z,5.26
2023-03-31T15:08:01.146Z,5.23
2023-03-31T15:10:33.974Z,5.22
2023-03-31T15:13:16.198Z,5.15
2023-03-31T15:15:49.521Z,5.13
2023-03-31T15:18:22.190Z,5.11
2023-03-31T15:20:53.934Z,5.10
2023-03-31T15:23:28.850Z,5.09
2023-03-31T15:26:02.292Z,5.08
2023-03-31T15:28:35.198Z,5.07
2023-03-31T15:31:10.459Z,5.05
2023-03-31T15:33:44.514Z,5.06
2023-03-31T15:36:16.136Z,5.00
2023-03-31T15:38:49.525Z,5.01
2023-03-31T15:44:07.853Z,4.98
2023-03-31T15:46:45.984Z,4.95
2023-03-31T15:49:24.091Z,4.96
2023-03-31T15:51:57.682Z,4.92
2023-03-31T15:54:39.137Z,4.86
2023-03-31T15:57:11.130Z,4.82
2023-03-31T15:59:55.429Z,4.79
2023-03-31T16:02:27.667Z,4.78
2023-03-31T16:05:00.071Z,4.76
2023-03-31T16:07:33.753Z,4.72
2023-03-31T16:10:06.372Z,4.72
2023-03-31T16:12:38.891Z,4.75
2023-03-31T16:15:13.455Z,4.77
2023-03-31T16:17:49.176Z,4.82
2023-03-31T16:20:22.079Z,4.85
2023-03-31T16:22:54.594Z,4.86
2023-03-31T16:25:27.666Z,4.84
2023-03-31T16:28:00.664Z,4.85
2023-03-31T16:30:41.934Z,4.85
2023-03-31T16:33:14.616Z,4.85
2023-03-31T16:35:48.783Z,4.85
2023-03-31T16:38:20.375Z,4.85
2023-03-31T16:40:53.463Z,4.87
2023-03-31T16:43:28.660Z,4.90
2023-03-31T16:46:01.299Z,4.92
2023-03-31T16:48:35.596Z,4.95
2023-03-31T16:51:07.110Z,5.00
2023-03-31T16:53:38.562Z,4.99
2023-03-31T16:56:10.002Z,4.98
2023-03-31T16:58:42.075Z,5.00
2023-03-31T17:01:13.602Z,4.98
2023-03-31T17:03:44.704Z,5.00
2023-03-31T17:06:15.804Z,5.06
2023-03-31T17:08:46.749Z,5.08
2023-03-31T17:11:17.791Z,5.06
2023-03-31T17:13:49.185Z,5.03
2023-03-31T17:16:26.797Z,4.95
2023-03-31T17:18:53.316Z,4.90
2023-03-31T17:21:24.778Z,4.85
2023-03-31T17:23:55.692Z,4.84
2023-03-31T17:26:27.272Z,4.82
2023-03-31T17:28:58.210Z,4.81
2023-03-31T17:31:30.696Z,4.83
2023-03-31T17:34:01.734Z,4.82
2023-03-31T17:36:32.812Z,4.82
2023-03-31T17:39:05.323Z,4.82
2023-03-31T17:41:36.583Z,4.82
2023-03-31T17:44:08.873Z,4.84
2023-03-31T17:46:39.882Z,4.83
2023-03-31T17:49:11.228Z,4.85
2023-03-31T17:51:42.254Z,4.86
2023-03-31T17:54:13.676Z,4.83
2023-03-31T17:56:45.588Z,4.84
2023-03-31T17:59:16.537Z,4.82
2023-03-31T18:01:48.054Z,4.80
2023-03-31T18:04:19.462Z,4.81
2023-03-31T18:06:50.651Z,4.79
2023-03-31T18:09:22.384Z,4.80
2023-03-31T18:11:53.997Z,4.79
2023-03-31T18:14:24.957Z,4.78
2023-03-31T18:16:56.413Z,4.79
2023-03-31T18:19:27.082Z,4.79
2023-03-31T18:21:58.031Z,4.80
2023-03-31T18:24:28.935Z,4.81
2023-03-31T18:27:00.169Z,4.79
2023-03-31T18:29:31.367Z,4.77
2023-03-31T18:32:02.720Z,4.75
2023-03-31T18:34:33.884Z,4.76
2023-03-31T18:37:05.687Z,4.77
2023-03-31T18:39:36.857Z,4.76
2023-03-31T18:42:08.044Z,4.77
2023-03-31T18:44:39.943Z,4.72
2023-03-31T18:47:10.936Z,4.73
2023-03-31T18:49:42.269Z,4.81
2023-03-31T18:52:13.252Z,4.79
2023-03-31T18:54:44.307Z,4.75
2023-03-31T18:57:15.215Z,4.74
2023-03-31T18:59:46.403Z,4.71
2023-03-31T19:02:18.401Z,4.71
2023-03-31T19:04:50.107Z,4.73
2023-03-31T19:07:21.067Z,4.70
2023-03-31T19:09:52.067Z,4.69
2023-03-31T19:12:22.976Z,4.69
2023-03-31T19:14:54.041Z,4.70
2023-03-31T19:17:25.166Z,4.67
2023-03-31T19:19:56.154Z,4.66
2023-03-31T19:22:27.963Z,4.65
2023-03-31T19:24:58.926Z,4.64
2023-03-31T19:27:30.350Z,4.65
2023-03-31T19:30:01.158Z,4.62
2023-03-31T19:32:32.460Z,4.58
2023-03-31T19:35:03.747Z,4.55
2023-03-31T19:37:34.336Z,4.54
2023-03-31T19:40:06.251Z,4.54
2023-03-31T19:42:36.988Z,4.53
2023-03-31T19:45:07.832Z,4.50
2023-03-31T19:47:38.891Z,4.48
2023-03-31T19:50:10.135Z,4.45
2023-03-31T19:52:41.095Z,4.43
2023-03-31T19:55:11.864Z,4.41
2023-03-31T19:57:42.772Z,4.40
2023-03-31T20:00:13.845Z,4.43
2023-03-31T20:02:44.939Z,4.45
2023-03-31T20:05:16.026Z,4.38
2023-03-31T20:07:46.861Z,4.34
2023-03-31T20:10:17.596Z,4.32
2023-03-31T20:12:50.038Z,4.31
2023-03-31T20:15:21.138Z,4.26
2023-03-31T20:17:52.467Z,4.25
2023-03-31T20:20:24.445Z,4.22
2023-03-31T20:22:55.428Z,4.21
2023-03-31T20:25:26.487Z,4.19
2023-03-31T20:27:57.428Z,4.20
2023-03-31T20:30:28.403Z,4.22
2023-03-31T20:32:59.608Z,4.16
2023-03-31T20:35:30.854Z,4.16
2023-03-31T20:38:01.970Z,4.11
2023-03-31T20:40:32.879Z,4.09
2023-03-31T20:43:04.165Z,4.09
2023-03-31T20:45:35.055Z,4.12
2023-03-31T20:48:06.385Z,4.10
2023-03-31T20:50:39.434Z,4.06
2023-03-31T20:53:10.845Z,4.06
2023-03-31T20:55:41.787Z,4.07
2023-03-31T20:58:12.743Z,4.06
2023-03-31T21:00:43.943Z,4.11
2023-03-31T21:03:14.861Z,4.11
2023-03-31T21:05:48.058Z,4.11
2023-03-31T21:08:18.914Z,4.15
2023-03-31T21:10:49.801Z,4.15
2023-03-31T21:13:20.899Z,4.18
2023-03-31T21:15:53.397Z,4.14
2023-03-31T21:18:24.434Z,4.14
2023-03-31T21:20:56.819Z,4.12
2023-03-31T21:23:28.441Z,4.11
2023-03-31T21:26:00.867Z,4.16
2023-03-31T21:28:33.028Z,4.19
2023-03-31T21:31:10.883Z,4.15
2023-03-31T21:33:43.085Z,4.11
2023-03-31T21:36:15.539Z,4.07
2023-03-31T21:38:46.892Z,4.04
2023-03-31T21:41:20.772Z,4.02
2023-03-31T21:43:51.877Z,4.02
2023-03-31T21:46:24.748Z,4.04
2023-03-31T21:48:56.539Z,4.04
2023-03-31T21:51:28.780Z,4.06
2023-03-31T21:53:59.779Z,4.07
2023-03-31T21:56:32.418Z,4.03
2023-03-31T21:59:04.432Z,4.01
2023-03-31T22:01:35.302Z,4.01
2023-03-31T22:04:06.177Z,4.04
2023-03-31T22:06:38.819Z,4.06
2023-03-31T22:09:09.721Z,4.05
2023-03-31T22:11:40.817Z,4.01
2023-03-31T22:14:11.837Z,4.02
2023-03-31T22:16:42.959Z,4.01
2023-03-31T22:19:14.286Z,4.05
2023-03-31T22:21:45.899Z,4.05
2023-03-31T22:24:16.945Z,4.06
2023-03-31T22:26:47.908Z,4.05
2023-03-31T22:29:18.637Z,4.05
2023-03-31T22:31:49.651Z,4.06
2023-03-31T22:34:20.552Z,4.05
2023-03-31T22:36:52.069Z,4.03
2023-03-31T22:39:23.296Z,4.03
2023-03-31T22:41:54.621Z,4.02
2023-03-31T22:44:25.738Z,4.01
2023-03-31T22:46:56.616Z,4.01
2023-03-31T22:49:27.670Z,4.02
2023-03-31T22:51:58.550Z,4.07
2023-03-31T22:54:29.790Z,4.03
2023-03-31T22:57:00.743Z,4.00
2023-03-31T22:59:32.147Z,4.01
2023-03-31T23:02:03.561Z,4.02
2023-03-31T23:04:34.482Z,3.99
2023-03-31T23:07:05.649Z,3.98
2023-03-31T23:09:37.432Z,3.97
2023-03-31T23:12:08.511Z,3.97
2023-03-31T23:14:39.390Z,3.98
2023-03-31T23:17:11.476Z,3.99
2023-03-31T23:19:43.270Z,3.99
2023-03-31T23:22:14.555Z,4.00
2023-03-31T23:24:45.510Z,3.99
2023-03-31T23:27:16.404Z,3.98
2023-03-31T23:29:47.561Z,3.98
2023-03-31T23:32:18.556Z,3.98
2023-03-31T23:34:50.072Z,3.94
2023-03-31T23:37:20.931Z,3.95
2023-03-31T23:39:52.155Z,3.94
2023-03-31T23:42:23.150Z,3.94
2023-03-31T23:44:53.987Z,3.95
2023-03-31T23:47:25.017Z,3.96
2023-03-31T23:49:57.195Z,3.98
2023-03-31T23:52:28.126Z,3.96
2023-03-31T23:54:59.176Z,3.98
2023-03-31T23:57:30.276Z,3.99
